createdAt,value
2023-04-15T00:01:11.725Z,96216.66
2023-04-15T00:03:14.672Z,96221.78
2023-04-15T00:05:17.500Z,96218.88
2023-04-15T00:07:21.420Z,96226.53
2023-04-15T00:09:23.985Z,96224.50
2023-04-15T00:11:26.524Z,96235.75
2023-04-15T00:13:29.547Z,96230.88
2023-04-15T00:15:32.741Z,96231.06
2023-04-15T00:17:35.340Z,96233.94
2023-04-15T00:19:38.299Z,96233.38
2023-04-15T00:21:41.314Z,96238.69
2023-04-15T00:23:45.252Z,96225.88
2023-04-15T00:25:48.383Z,96231.94
2023-04-15T00:27:50.935Z,96229.13
2023-04-15T00:29:53.603Z,96229.28
2023-04-15T00:31:56.935Z,96233.88
2023-04-15T00:33:59.704Z,96234.97
2023-04-15T00:36:02.804Z,96232.19
2023-04-15T00:38:05.651Z,96230.63
2023-04-15T00:40:13.664Z,96227.88
2023-04-15T00:42:16.529Z,96225.75
2023-04-15T00:44:20.000Z,96223.41
2023-04-15T00:46:23.794Z,96226.00
2023-04-15T00:48:27.919Z,96224.44
2023-04-15T00:50:30.461Z,96226.00
2023-04-15T00:52:33.080Z,96225.16
2023-04-15T00:54:36.431Z,96223.41
2023-04-15T00:56:40.946Z,96224.16
2023-04-15T00:58:46.445Z,96229.34
2023-04-15T01:00:49.181Z,96231.91
2023-04-15T01:02:51.863Z,96236.25
2023-04-15T01:04:54.583Z,96237.19
2023-04-15T01:06:57.423Z,96233.53
2023-04-15T01:09:01.535Z,96238.72
2023-04-15T01:11:04.814Z,96236.19
2023-04-15T01:13:09.167Z,96234.72
2023-04-15T01:15:12.093Z,96233.47
2023-04-15T01:17:14.874Z,96231.94
2023-04-15T01:19:18.733Z,96233.94
2023-04-15T01:21:21.942Z,96234.06
2023-04-15T01:23:24.600Z,96240.00
2023-04-15T01:25:33.920Z,96237.59
2023-04-15T01:27:36.904Z,96235.25
2023-04-15T01:29:39.883Z,96240.69
2023-04-15T01:31:42.444Z,96237.44
2023-04-15T01:33:45.003Z,96235.03
2023-04-15T01:35:47.822Z,96235.19
2023-04-15T01:37:51.194Z,96238.63
2023-04-15T01:39:53.780Z,96237.63
2023-04-15T01:41:58.125Z,96234.97
2023-04-15T01:44:00.708Z,96234.78
2023-04-15T01:46:04.164Z,96234.03
2023-04-15T01:48:07.290Z,96232.38
2023-04-15T01:50:10.707Z,96227.88
2023-04-15T01:52:13.283Z,96227.94
2023-04-15T01:54:16.216Z,96228.75
2023-04-15T01:56:18.795Z,96227.88
2023-04-15T01:58:23.071Z,96230.44
2023-04-15T02:00:25.662Z,96221.84
2023-04-15T02:02:28.293Z,96222.84
2023-04-15T02:04:31.684Z,96227.19
2023-04-15T02:06:34.325Z,96221.22
2023-04-15T02:08:36.850Z,96220.19
2023-04-15T02:10:40.016Z,96227.94
2023-04-15T02:12:42.561Z,96219.31
2023-04-15T02:14:47.159Z,96216.00
2023-04-15T02:16:49.733Z,96219.50
2023-04-15T02:18:52.712Z,96219.47
2023-04-15T02:20:56.622Z,96212.53
2023-04-15T02:22:59.283Z,96212.66
2023-04-15T02:25:01.910Z,96212.66
2023-04-15T02:27:04.546Z,96209.22
2023-04-15T02:29:07.101Z,96212.66
2023-04-15T02:31:11.163Z,96210.25
2023-04-15T02:33:13.710Z,96206.94
2023-04-15T02:35:16.577Z,96206.25
2023-04-15T02:37:20.336Z,96215.88
2023-04-15T02:39:22.879Z,96207.44
2023-04-15T02:41:27.715Z,96203.22
2023-04-15T02:43:30.523Z,96210.94
2023-04-15T02:45:33.071Z,96214.50
2023-04-15T02:47:37.340Z,96212.84
2023-04-15T02:49:40.232Z,96215.50
2023-04-15T02:51:42.968Z,96218.88
2023-04-15T02:53:45.516Z,96219.69
2023-04-15T02:55:48.068Z,96214.50
2023-04-15T02:57:50.771Z,96214.69
2023-04-15T02:59:53.308Z,96210.31
2023-04-15T03:02:00.771Z,96213.72
2023-04-15T03:04:07.744Z,96221.66
2023-04-15T03:06:10.658Z,96216.75
2023-04-15T03:08:14.675Z,96220.25
2023-04-15T03:10:17.260Z,96221.97
2023-04-15T03:12:19.848Z,96223.81
2023-04-15T03:14:22.431Z,96219.44
2023-04-15T03:16:25.014Z,96223.88
2023-04-15T03:18:28.790Z,96224.72
2023-04-15T03:20:32.707Z,96221.34
2023-04-15T03:22:35.460Z,96222.94
2023-04-15T03:24:38.020Z,96218.88
2023-04-15T03:26:40.699Z,96214.50
2023-04-15T03:28:43.226Z,96216.28
2023-04-15T03:30:45.782Z,96217.09
2023-04-15T03:32:48.328Z,96216.28
2023-04-15T03:34:51.034Z,96214.31
2023-04-15T03:36:55.100Z,96215.53
2023-04-15T03:38:57.835Z,96215.66
2023-04-15T03:41:00.374Z,96214.50
2023-04-15T03:43:02.908Z,96216.47
2023-04-15T03:45:06.520Z,96212.91
2023-04-15T03:47:09.082Z,96210.56
2023-04-15T03:49:11.898Z,96214.00
2023-04-15T03:51:14.421Z,96214.16
2023-04-15T03:53:18.297Z,96214.97
2023-04-15T03:55:20.834Z,96220.16
2023-04-15T03:57:23.391Z,96215.97
2023-04-15T03:59:25.930Z,96215.75
2023-04-15T04:01:28.471Z,96220.28
2023-04-15T04:03:31.129Z,96227.22
2023-04-15T04:05:33.829Z,96219.47
2023-04-15T04:07:36.583Z,96219.66
2023-04-15T04:09:42.004Z,96219.91
2023-04-15T04:11:45.549Z,96214.47
2023-04-15T04:13:48.090Z,96219.06
2023-04-15T04:15:50.698Z,96219.13
2023-04-15T04:17:53.388Z,96221.66
2023-04-15T04:19:56.078Z,96221.69
2023-04-15T04:21:58.722Z,96217.34
2023-04-15T04:24:01.484Z,96225.09
2023-04-15T04:26:05.387Z,96226.66
2023-04-15T04:28:07.975Z,96227.06
2023-04-15T04:30:10.807Z,96232.38
2023-04-15T04:32:13.371Z,96226.53
2023-04-15T04:34:16.010Z,96230.91
2023-04-15T04:36:18.586Z,96236.28
2023-04-15T04:38:21.230Z,96238.88
2023-04-15T04:40:23.779Z,96237.28
2023-04-15T04:42:27.681Z,96239.84
2023-04-15T04:44:30.232Z,96245.81
2023-04-15T04:46:32.829Z,96236.41
2023-04-15T04:48:35.381Z,96237.28
2023-04-15T04:50:38.010Z,96230.44
2023-04-15T04:52:40.627Z,96234.75
2023-04-15T04:54:43.176Z,96238.97
2023-04-15T04:56:45.742Z,96241.63
2023-04-15T04:58:49.640Z,96237.53
2023-04-15T05:00:52.327Z,96243.56
2023-04-15T05:02:55.018Z,96241.00
2023-04-15T05:04:57.632Z,96242.81
2023-04-15T05:07:00.269Z,96246.31
2023-04-15T05:09:03.402Z,96243.72
2023-04-15T05:11:06.412Z,96250.53
2023-04-15T05:13:08.963Z,96244.53
2023-04-15T05:15:13.197Z,96249.59
2023-04-15T05:17:15.727Z,96247.47
2023-04-15T05:19:18.275Z,96249.91
2023-04-15T05:21:21.157Z,96247.72
2023-04-15T05:23:23.718Z,96259.88
2023-04-15T05:25:26.981Z,96255.19
2023-04-15T05:27:29.517Z,96259.06
2023-04-15T05:29:32.083Z,96250.66
2023-04-15T05:31:36.199Z,96248.34
2023-04-15T05:33:38.919Z,96257.13
2023-04-15T05:35:41.452Z,96251.75
2023-04-15T05:37:44.156Z,96258.56
2023-04-15T05:39:46.663Z,96251.09
2023-04-15T05:41:49.297Z,96248.47
2023-04-15T05:43:51.876Z,96244.91
2023-04-15T05:45:54.474Z,96251.63
2023-04-15T05:47:58.423Z,96244.91
2023-04-15T05:50:01.061Z,96250.75
2023-04-15T05:52:03.700Z,96247.38
2023-04-15T05:54:06.815Z,96249.09
2023-04-15T05:56:09.396Z,96253.28
2023-04-15T05:58:12.514Z,96252.31
2023-04-15T06:00:16.385Z,96251.22
2023-04-15T06:02:19.152Z,96251.13
2023-04-15T06:04:23.223Z,96250.88
2023-04-15T06:06:27.193Z,96255.78
2023-04-15T06:08:29.811Z,96259.00
2023-04-15T06:10:36.417Z,96249.41
2023-04-15T06:12:39.099Z,96250.09
2023-04-15T06:14:41.811Z,96252.44
2023-04-15T06:16:44.408Z,96253.22
2023-04-15T06:18:46.985Z,96254.97
2023-04-15T06:20:50.957Z,96256.66
2023-04-15T06:22:53.753Z,96256.56
2023-04-15T06:24:56.475Z,96260.81
2023-04-15T06:26:59.023Z,96262.56
2023-04-15T06:29:01.818Z,96269.38
2023-04-15T06:31:04.681Z,96260.75
2023-04-15T06:33:07.449Z,96275.22
2023-04-15T06:35:10.729Z,96269.00
2023-04-15T06:37:16.302Z,96269.81
2023-04-15T06:39:18.903Z,96268.84
2023-04-15T06:41:21.514Z,96264.63
2023-04-15T06:43:24.177Z,96271.44
2023-04-15T06:45:27.371Z,96278.31
2023-04-15T06:47:29.972Z,96278.25
2023-04-15T06:49:33.658Z,96285.00
2023-04-15T06:51:36.916Z,96291.69
2023-04-15T06:53:42.488Z,96283.56
2023-04-15T06:55:45.023Z,96281.97
2023-04-15T06:57:47.576Z,96280.88
2023-04-15T06:59:50.344Z,96283.34
2023-04-15T07:01:53.004Z,96275.97
2023-04-15T07:03:55.635Z,96277.50
2023-04-15T07:05:58.693Z,96287.84
2023-04-15T07:08:01.284Z,96284.75
2023-04-15T07:10:06.026Z,96276.91
2023-04-15T07:12:08.583Z,96279.56
2023-04-15T07:14:11.518Z,96269.84
2023-04-15T07:16:14.416Z,96269.53
2023-04-15T07:18:17.011Z,96272.97
2023-04-15T07:20:19.789Z,96274.91
2023-04-15T07:22:22.314Z,96273.50
2023-04-15T07:24:26.744Z,96275.25
2023-04-15T07:26:30.852Z,96274.31
2023-04-15T07:28:33.391Z,96270.72
2023-04-15T07:30:36.039Z,96263.63
2023-04-15T07:32:38.613Z,96272.06
2023-04-15T07:34:41.549Z,96259.84
2023-04-15T07:36:44.428Z,96254.50
2023-04-15T07:38:46.973Z,96254.25
2023-04-15T07:40:49.581Z,96256.84
2023-04-15T07:42:53.493Z,96252.19
2023-04-15T07:44:56.187Z,96252.56
2023-04-15T07:46:58.749Z,96253.31
2023-04-15T07:49:01.441Z,96255.16
2023-04-15T07:51:04.414Z,96250.94
2023-04-15T07:53:07.843Z,96246.34
2023-04-15T07:55:11.463Z,96245.53
2023-04-15T07:57:14.025Z,96241.88
2023-04-15T07:59:18.872Z,96250.22
2023-04-15T08:01:21.548Z,96244.44
2023-04-15T08:03:24.526Z,96233.00
2023-04-15T08:05:27.170Z,96236.84
2023-04-15T08:07:29.744Z,96240.72
2023-04-15T08:09:32.290Z,96241.75
2023-04-15T08:11:34.999Z,96240.25
2023-04-15T08:13:37.558Z,96241.44
2023-04-15T08:15:41.462Z,96244.25
2023-04-15T08:17:44.141Z,96240.75
2023-04-15T08:19:48.290Z,96237.19
2023-04-15T08:21:51.053Z,96240.47
2023-04-15T08:23:54.451Z,96243.78
2023-04-15T08:25:57.180Z,96249.63
2023-04-15T08:27:59.732Z,96245.06
2023-04-15T08:30:04.205Z,96247.03
2023-04-15T08:32:09.555Z,96244.50
2023-04-15T08:34:12.564Z,96254.81
2023-04-15T08:36:15.147Z,96249.47
2023-04-15T08:38:18.127Z,96247.66
2023-04-15T08:40:22.714Z,96249.50
2023-04-15T08:42:31.792Z,96245.13
2023-04-15T08:44:36.845Z,96255.78
2023-04-15T08:46:40.022Z,96251.47
2023-04-15T08:48:45.093Z,96256.72
2023-04-15T08:50:48.766Z,96252.84
2023-04-15T08:52:54.783Z,96255.16
2023-04-15T08:54:59.714Z,96249.34
2023-04-15T08:57:03.801Z,96256.25
2023-04-15T08:59:07.186Z,96247.91
2023-04-15T09:01:09.966Z,96247.75
2023-04-15T09:03:12.699Z,96250.84
2023-04-15T09:05:17.446Z,96247.16
2023-04-15T09:07:20.067Z,96249.41
2023-04-15T09:09:22.692Z,96251.38
2023-04-15T09:11:25.639Z,96245.13
2023-04-15T09:13:28.185Z,96252.53
2023-04-15T09:15:33.749Z,96255.47
2023-04-15T09:17:36.355Z,96256.34
2023-04-15T09:19:38.956Z,96255.47
2023-04-15T09:21:42.921Z,96257.91
2023-04-15T09:23:56.668Z,96255.13
2023-04-15T09:25:59.480Z,96262.56
2023-04-15T09:28:03.084Z,96264.00
2023-04-15T09:30:09.956Z,96263.78
2023-04-15T09:32:13.887Z,96263.84
2023-04-15T09:34:16.570Z,96265.59
2023-04-15T09:36:19.190Z,96264.38
2023-04-15T09:38:23.087Z,96265.22
2023-04-15T09:40:37.124Z,96268.88
2023-04-15T09:42:55.944Z,96265.78
2023-04-15T09:45:09.567Z,96269.34
2023-04-15T09:47:28.987Z,96271.97
2023-04-15T09:49:31.629Z,96283.31
2023-04-15T09:51:36.089Z,96268.31
2023-04-15T09:53:39.962Z,96271.97
2023-04-15T09:55:46.083Z,96270.69
2023-04-15T09:57:51.751Z,96267.56
2023-04-15T09:59:54.394Z,96268.50
2023-04-15T10:01:57.274Z,96267.84
2023-04-15T10:04:03.340Z,96266.66
2023-04-15T10:06:06.395Z,96264.97
2023-04-15T10:08:09.683Z,96268.34
2023-04-15T10:10:14.354Z,96267.50
2023-04-15T10:12:18.012Z,96264.16
2023-04-15T10:14:21.751Z,96264.22
2023-04-15T10:16:28.432Z,96269.41
2023-04-15T10:18:35.651Z,96262.78
2023-04-15T10:20:39.023Z,96263.97
2023-04-15T10:22:43.215Z,96262.53
2023-04-15T10:24:47.147Z,96268.84
2023-04-15T10:26:52.043Z,96266.22
2023-04-15T10:28:55.360Z,96268.56
2023-04-15T10:30:59.699Z,96269.22
2023-04-15T10:33:04.118Z,96264.03
2023-04-15T10:35:08.793Z,96268.81
2023-04-15T10:37:12.069Z,96282.44
2023-04-15T10:39:40.200Z,96278.06
2023-04-15T10:41:42.796Z,96274.97
2023-04-15T10:43:54.159Z,96278.25
2023-04-15T10:45:56.777Z,96277.56
2023-04-15T10:48:03.614Z,96280.03
2023-04-15T10:50:07.527Z,96282.41
2023-04-15T10:52:10.159Z,96282.13
2023-04-15T10:54:15.645Z,96283.81
2023-04-15T10:56:18.559Z,96289.78
2023-04-15T10:58:24.893Z,96287.34
2023-04-15T11:00:30.598Z,96288.88
2023-04-15T11:02:45.127Z,96291.47
2023-04-15T11:04:56.263Z,96290.63
2023-04-15T11:07:07.390Z,96295.72
2023-04-15T11:09:29.987Z,96288.72
2023-04-15T11:12:07.434Z,96286.59
2023-04-15T11:14:16.221Z,96290.31
2023-04-15T11:16:20.317Z,96280.13
2023-04-15T11:18:24.362Z,96291.84
2023-04-15T11:20:27.451Z,96290.41
2023-04-15T11:22:30.518Z,96294.03
2023-04-15T11:24:33.049Z,96294.78
2023-04-15T11:26:35.618Z,96302.72
2023-04-15T11:28:40.071Z,96305.22
2023-04-15T11:30:43.741Z,96307.06
2023-04-15T11:32:47.626Z,96307.06
2023-04-15T11:34:50.217Z,96307.56
2023-04-15T11:36:52.800Z,96307.50
2023-04-15T11:38:55.629Z,96306.00
2023-04-15T11:40:58.560Z,96306.66
2023-04-15T11:43:08.746Z,96298.91
2023-04-15T11:45:13.358Z,96308.25
2023-04-15T11:47:25.159Z,96302.19
2023-04-15T11:49:29.350Z,96303.13
2023-04-15T11:51:33.907Z,96306.38
2023-04-15T11:53:41.498Z,96309.50
2023-04-15T11:55:46.893Z,96306.03
2023-04-15T11:57:49.456Z,96307.72
2023-04-15T11:59:56.310Z,96310.75
2023-04-15T12:01:59.678Z,96313.78
2023-04-15T12:04:03.872Z,96315.50
2023-04-15T12:06:17.684Z,96321.63
2023-04-15T12:08:20.502Z,96323.31
2023-04-15T12:10:25.619Z,96323.47
2023-04-15T12:12:28.762Z,96325.09
2023-04-15T12:14:32.527Z,96338.34
2023-04-15T12:16:48.287Z,96338.63
2023-04-15T12:18:53.367Z,96343.94
2023-04-15T12:20:55.974Z,96347.41
2023-04-15T12:23:07.732Z,96348.31
2023-04-15T12:25:12.739Z,96344.78
2023-04-15T12:27:16.841Z,96345.44
2023-04-15T12:29:19.880Z,96344.31
2023-04-15T12:31:22.888Z,96347.00
2023-04-15T12:33:33.505Z,96352.41
2023-04-15T12:35:36.101Z,96354.91
2023-04-15T12:37:38.685Z,96352.31
2023-04-15T12:39:44.060Z,96352.97
2023-04-15T12:41:46.597Z,96351.41
2023-04-15T12:43:49.168Z,96357.75
2023-04-15T12:45:51.712Z,96361.28
2023-04-15T12:47:54.251Z,96366.22
2023-04-15T12:49:56.859Z,96361.75
2023-04-15T12:52:01.065Z,96360.75
2023-04-15T12:54:03.922Z,96365.34
2023-04-15T12:56:08.338Z,96361.88
2023-04-15T12:58:11.726Z,96373.94
2023-04-15T13:00:15.608Z,96368.34
2023-04-15T13:02:18.800Z,96370.31
2023-04-15T13:04:22.790Z,96374.50
2023-04-15T13:06:25.699Z,96369.91
2023-04-15T13:08:28.267Z,96379.38
2023-04-15T13:10:31.569Z,96375.69
2023-04-15T13:12:36.735Z,96380.75
2023-04-15T13:14:39.272Z,96385.81
2023-04-15T13:16:41.925Z,96392.34
2023-04-15T13:18:45.579Z,96407.84
2023-04-15T13:20:48.664Z,96416.34
2023-04-15T13:22:51.439Z,96421.56
2023-04-15T13:24:53.990Z,96432.31
2023-04-15T13:26:58.915Z,96428.47
2023-04-15T13:29:02.918Z,96439.28
2023-04-15T13:31:06.616Z,96446.09
2023-04-15T13:33:09.142Z,96449.06
2023-04-15T13:35:11.766Z,96455.59
2023-04-15T13:37:14.332Z,96462.25
2023-04-15T13:39:16.914Z,96462.56
2023-04-15T13:41:20.039Z,96471.47
2023-04-15T13:43:22.649Z,96461.84
2023-04-15T13:45:26.902Z,96459.97
2023-04-15T13:47:29.734Z,96467.06
2023-04-15T13:49:32.385Z,96470.91
2023-04-15T13:51:36.337Z,96473.16
2023-04-15T13:53:39.792Z,96477.28
2023-04-15T13:55:42.771Z,96481.69
2023-04-15T13:57:45.737Z,96471.69
2023-04-15T13:59:48.940Z,96484.75
2023-04-15T14:01:53.057Z,96484.97
2023-04-15T14:03:56.053Z,96488.78
2023-04-15T14:05:58.799Z,96490.63
2023-04-15T14:08:01.707Z,96494.66
2023-04-15T14:10:04.770Z,96501.34
2023-04-15T14:12:07.320Z,96506.41
2023-04-15T14:14:09.858Z,96503.28
2023-04-15T14:16:12.694Z,96511.69
2023-04-15T14:18:16.786Z,96517.16
2023-04-15T14:20:19.507Z,96522.31
2023-04-15T14:22:22.078Z,96520.94
2023-04-15T14:24:24.598Z,96542.25
2023-04-15T14:26:27.244Z,96526.91
2023-04-15T14:28:30.334Z,96523.75
2023-04-15T14:30:32.925Z,96519.97
2023-04-15T14:32:35.552Z,96523.69
2023-04-15T14:34:39.474Z,96531.59
2023-04-15T14:36:42.552Z,96529.16
2023-04-15T14:38:45.783Z,96531.09
2023-04-15T14:40:49.537Z,96534.56
2023-04-15T14:42:52.116Z,96541.22
2023-04-15T14:44:54.660Z,96537.94
2023-04-15T14:46:57.262Z,96552.09
2023-04-15T14:48:59.858Z,96544.50
2023-04-15T14:51:03.942Z,96544.66
2023-04-15T14:53:06.521Z,96550.13
2023-04-15T14:55:11.494Z,96548.53
2023-04-15T14:57:14.145Z,96547.88
2023-04-15T14:59:17.611Z,96556.69
2023-04-15T15:01:20.457Z,96553.25
2023-04-15T15:03:24.584Z,96552.31
2023-04-15T15:05:27.346Z,96560.16
2023-04-15T15:07:31.600Z,96561.84
2023-04-15T15:09:35.074Z,96568.09
2023-04-15T15:11:37.742Z,96562.00
2023-04-15T15:13:40.391Z,96566.56
2023-04-15T15:15:43.321Z,96561.31
2023-04-15T15:17:45.987Z,96573.78
2023-04-15T15:19:48.677Z,96570.34
2023-04-15T15:21:51.249Z,96569.06
2023-04-15T15:23:55.097Z,96579.00
2023-04-15T15:25:58.389Z,96576.47
2023-04-15T15:28:01.116Z,96583.47
2023-04-15T15:30:03.842Z,96585.72
2023-04-15T15:32:06.744Z,96593.56
2023-04-15T15:34:09.527Z,96585.91
2023-04-15T15:36:12.159Z,96600.78
2023-04-15T15:38:14.853Z,96605.97
2023-04-15T15:40:19.615Z,96615.72
2023-04-15T15:42:23.450Z,96617.66
2023-04-15T15:44:26.232Z,96617.84
2023-04-15T15:46:31.439Z,96624.72
2023-04-15T15:48:34.224Z,96625.78
2023-04-15T15:50:36.796Z,96631.81
2023-04-15T15:52:39.474Z,96633.44
2023-04-15T15:54:42.903Z,96632.06
2023-04-15T15:56:46.812Z,96632.31
2023-04-15T15:58:49.352Z,96635.16
2023-04-15T16:00:52.665Z,96634.31
2023-04-15T16:03:06.663Z,96633.78
2023-04-15T16:05:11.085Z,96644.31
2023-04-15T16:07:15.405Z,96650.94
2023-04-15T16:09:18.096Z,96645.91
2023-04-15T16:11:20.857Z,96651.19
2023-04-15T16:13:24.820Z,96652.91
2023-04-15T16:15:27.507Z,96656.50
2023-04-15T16:17:30.095Z,96651.28
2023-04-15T16:19:32.726Z,96660.09
2023-04-15T16:21:35.502Z,96670.53
2023-04-15T16:23:38.558Z,96674.06
2023-04-15T16:25:43.708Z,96670.22
2023-04-15T16:27:57.796Z,96680.97
2023-04-15T16:30:03.754Z,96682.03
2023-04-15T16:32:07.229Z,96690.16
2023-04-15T16:34:10.286Z,96684.59
2023-04-15T16:36:12.870Z,96689.78
2023-04-15T16:38:15.563Z,96691.72
2023-04-15T16:40:18.342Z,96695.25
2023-04-15T16:42:20.913Z,96687.47
2023-04-15T16:44:24.528Z,96693.53
2023-04-15T16:46:29.583Z,96696.22
2023-04-15T16:48:32.168Z,96703.28
2023-04-15T16:50:34.753Z,96707.66
2023-04-15T16:52:37.417Z,96703.34
2023-04-15T16:54:41.626Z,96708.03
2023-04-15T16:56:44.227Z,96705.97
2023-04-15T16:58:46.772Z,96715.69
2023-04-15T17:00:49.646Z,96716.84
2023-04-15T17:02:53.685Z,96722.22
2023-04-15T17:04:56.345Z,96731.78
2023-04-15T17:06:58.994Z,96731.09
2023-04-15T17:09:01.613Z,96733.84
2023-04-15T17:11:04.224Z,96729.56
2023-04-15T17:13:06.835Z,96733.00
2023-04-15T17:15:10.523Z,96741.91
2023-04-15T17:17:13.092Z,96746.97
2023-04-15T17:19:17.038Z,96754.56
2023-04-15T17:21:19.606Z,96759.13
2023-04-15T17:23:22.365Z,96761.03
2023-04-15T17:25:24.923Z,96767.41
2023-04-15T17:27:28.809Z,96772.63
2023-04-15T17:29:31.350Z,96777.84
2023-04-15T17:31:33.980Z,96779.75
2023-04-15T17:34:00.004Z,96785.78
2023-04-15T17:36:00.860Z,96780.09
2023-04-15T17:38:05.183Z,96787.03
2023-04-15T17:40:09.015Z,96796.56
2023-04-15T17:42:11.706Z,96799.31
2023-04-15T17:44:14.271Z,96811.59
2023-04-15T17:46:16.916Z,96802.91
2023-04-15T17:48:19.476Z,96809.19
2023-04-15T17:50:22.077Z,96821.53
2023-04-15T17:52:26.024Z,96824.91
2023-04-15T17:54:28.590Z,96823.25
2023-04-15T17:56:31.512Z,96824.13
2023-04-15T17:58:34.107Z,96827.66
2023-04-15T18:00:36.736Z,96833.69
2023-04-15T18:02:39.538Z,96840.69
2023-04-15T18:04:42.354Z,96840.81
2023-04-15T18:06:45.017Z,96836.53
2023-04-15T18:08:49.031Z,96839.97
2023-04-15T18:10:51.574Z,96834.06
2023-04-15T18:12:54.102Z,96842.78
2023-04-15T18:14:56.657Z,96841.94
2023-04-15T18:16:59.248Z,96842.84
2023-04-15T18:19:01.859Z,96848.91
2023-04-15T18:21:04.507Z,96848.06
2023-04-15T18:23:07.199Z,96848.97
2023-04-15T18:25:11.492Z,96856.88
2023-04-15T18:27:14.072Z,96856.94
2023-04-15T18:29:16.808Z,96863.97
2023-04-15T18:31:19.443Z,96870.94
2023-04-15T18:33:22.027Z,96879.75
2023-04-15T18:35:24.580Z,96884.22
2023-04-15T18:37:29.205Z,96880.03
2023-04-15T18:39:31.880Z,96888.72
2023-04-15T18:41:35.804Z,96894.97
2023-04-15T18:43:38.414Z,96896.84
2023-04-15T18:45:41.181Z,96896.19
2023-04-15T18:47:43.969Z,96897.47
2023-04-15T18:49:46.565Z,96905.09
2023-04-15T18:51:49.133Z,96903.72
2023-04-15T18:53:51.700Z,96904.69
2023-04-15T18:55:56.165Z,96907.41
2023-04-15T18:58:06.358Z,96908.19
2023-04-15T19:00:13.207Z,96909.22
2023-04-15T19:02:15.867Z,96917.09
2023-04-15T19:04:18.614Z,96915.56
2023-04-15T19:06:22.449Z,96927.50
2023-04-15T19:08:25.047Z,96923.47
2023-04-15T19:10:28.273Z,96931.34
2023-04-15T19:12:30.816Z,96930.72
2023-04-15T19:14:35.000Z,96927.28
2023-04-15T19:16:37.664Z,96934.25
2023-04-15T19:18:40.216Z,96933.41
2023-04-15T19:20:44.986Z,96946.16
2023-04-15T19:22:47.852Z,96946.28
2023-04-15T19:24:52.097Z,96941.22
2023-04-15T19:26:54.683Z,96948.22
2023-04-15T19:28:58.909Z,96949.09
2023-04-15T19:31:02.887Z,96943.47
2023-04-15T19:33:05.452Z,96946.34
2023-04-15T19:35:10.034Z,96946.34
2023-04-15T19:37:14.664Z,96942.94
2023-04-15T19:39:17.247Z,96951.69
2023-04-15T19:41:19.834Z,96952.56
2023-04-15T19:43:22.401Z,96955.25
2023-04-15T19:45:24.982Z,96959.63
2023-04-15T19:47:29.536Z,96959.72
2023-04-15T19:49:32.097Z,96970.25
2023-04-15T19:51:34.704Z,96958.16
2023-04-15T19:53:37.290Z,96969.44
2023-04-15T19:55:39.916Z,96967.78
2023-04-15T19:57:42.477Z,96964.38
2023-04-15T19:59:45.006Z,96966.03
2023-04-15T20:01:47.991Z,96967.78
2023-04-15T20:03:53.940Z,96975.38
2023-04-15T20:05:57.124Z,96973.84
2023-04-15T20:08:02.289Z,96971.25
2023-04-15T20:10:10.723Z,96973.84
2023-04-15T20:12:50.903Z,96967.88
2023-04-15T20:14:37.878Z,96970.38
2023-04-15T20:16:40.522Z,96971.22
2023-04-15T20:18:43.059Z,96973.66
2023-04-15T20:20:46.999Z,96972.06
2023-04-15T20:22:49.764Z,96973.84
2023-04-15T20:24:52.298Z,96971.25
2023-04-15T20:26:54.834Z,96970.50
2023-04-15T20:28:57.758Z,96964.50
2023-04-15T20:31:01.792Z,96972.91
2023-04-15T20:33:05.466Z,96967.47
2023-04-15T20:35:08.685Z,96971.84
2023-04-15T20:37:13.168Z,96963.44
2023-04-15T20:39:16.179Z,96975.69
2023-04-15T20:41:18.717Z,96970.59
2023-04-15T20:43:22.205Z,96974.97
2023-04-15T20:45:25.029Z,96971.63
2023-04-15T20:47:27.725Z,96974.22
2023-04-15T20:49:34.198Z,96969.91
2023-04-15T20:51:37.917Z,96965.69
2023-04-15T20:53:42.196Z,96967.38
2023-04-15T20:55:45.014Z,96963.69
2023-04-15T20:57:48.392Z,96963.91
2023-04-15T20:59:51.063Z,96970.09
2023-04-15T21:01:53.738Z,96976.59
2023-04-15T21:03:56.357Z,96976.22
2023-04-15T21:05:58.946Z,96974.63
2023-04-15T21:08:01.451Z,96982.38
2023-04-15T21:10:05.810Z,96975.41
2023-04-15T21:12:08.536Z,96977.16
2023-04-15T21:14:11.209Z,96978.91
2023-04-15T21:16:13.790Z,96984.13
2023-04-15T21:18:16.394Z,96980.72
2023-04-15T21:20:19.097Z,96990.22
2023-04-15T21:22:21.640Z,96986.66
2023-04-15T21:24:24.233Z,96992.50
2023-04-15T21:26:28.141Z,96988.97
2023-04-15T21:28:30.994Z,96992.78
2023-04-15T21:30:33.520Z,96994.47
2023-04-15T21:32:36.118Z,97000.34
2023-04-15T21:34:38.736Z,96992.97
2023-04-15T21:36:41.328Z,96998.44
2023-04-15T21:38:43.904Z,97007.16
2023-04-15T21:40:46.678Z,97007.09
2023-04-15T21:42:51.230Z,97006.34
2023-04-15T21:44:53.788Z,97013.66
2023-04-15T21:46:56.491Z,97000.78
2023-04-15T21:48:59.285Z,97011.50
2023-04-15T21:51:02.532Z,97014.91
2023-04-15T21:53:05.202Z,97014.09
2023-04-15T21:55:08.526Z,97017.63
2023-04-15T21:57:11.105Z,97013.78
2023-04-15T21:59:15.083Z,97016.56
2023-04-15T22:01:17.782Z,97015.75
2023-04-15T22:03:20.505Z,97021.69
2023-04-15T22:05:23.239Z,97018.47
2023-04-15T22:07:26.532Z,97032.00
2023-04-15T22:09:29.259Z,97027.03
2023-04-15T22:11:32.323Z,97037.22
2023-04-15T22:13:35.115Z,97034.97
2023-04-15T22:15:39.094Z,97027.97
2023-04-15T22:17:41.689Z,97032.59
2023-04-15T22:19:45.196Z,97037.06
2023-04-15T22:21:47.721Z,97031.97
2023-04-15T22:23:50.750Z,97034.03
2023-04-15T22:25:53.290Z,97039.38
2023-04-15T22:27:55.917Z,97042.06
2023-04-15T22:29:58.452Z,97034.97
2023-04-15T22:32:02.368Z,97047.22
2023-04-15T22:34:04.945Z,97042.97
2023-04-15T22:36:07.510Z,97047.28
2023-04-15T22:38:10.078Z,97051.75
2023-04-15T22:40:13.250Z,97050.06
2023-04-15T22:42:15.826Z,97054.41
2023-04-15T22:44:18.382Z,97057.81
2023-04-15T22:46:21.040Z,97061.41
2023-04-15T22:48:26.104Z,97061.28
2023-04-15T22:50:28.709Z,97060.38
2023-04-15T22:52:31.501Z,97064.41
2023-04-15T22:54:34.357Z,97067.22
2023-04-15T22:56:36.910Z,97064.81
2023-04-15T22:58:39.502Z,97062.78
2023-04-15T23:00:42.177Z,97068.09
2023-04-15T23:02:44.825Z,97069.19
2023-04-15T23:04:48.868Z,97064.41
2023-04-15T23:06:52.348Z,97060.78
2023-04-15T23:08:54.899Z,97061.06
2023-04-15T23:10:57.586Z,97071.25
2023-04-15T23:13:00.150Z,97071.56
2023-04-15T23:15:02.756Z,97067.41
2023-04-15T23:17:05.415Z,97068.22
2023-04-15T23:19:08.337Z,97077.09
2023-04-15T23:21:12.618Z,97077.88
2023-04-15T23:23:15.861Z,97073.72
2023-04-15T23:25:20.438Z,97069.09
2023-04-15T23:27:23.008Z,97080.44
2023-04-15T23:29:25.657Z,97077.00
2023-04-15T23:31:28.246Z,97079.69
2023-04-15T23:33:32.516Z,97082.41
2023-04-15T23:35:35.043Z,97084.69
2023-04-15T23:37:38.982Z,97086.50
2023-04-15T23:39:41.508Z,97084.94
2023-04-15T23:41:44.092Z,97091.00
2023-04-15T23:43:46.611Z,97084.06
2023-04-15T23:45:49.164Z,97083.31
2023-04-15T23:47:51.778Z,97086.91
2023-04-15T23:49:54.355Z,97094.56
2023-04-15T23:51:57.510Z,97092.78
2023-04-15T23:54:01.427Z,97087.28
2023-04-15T23:56:04.330Z,97097.00
2023-04-15T23:58:06.860Z,97094.56
